createdAt,value
2018-05-18T00:01:42.881Z,12.40
2018-05-18T00:04:16.416Z,12.50
2018-05-18T00:06:49.985Z,12.50
2018-05-18T00:09:23.529Z,12.60
2018-05-18T00:11:57.218Z,12.40
2018-05-18T00:14:31.699Z,12.30
2018-05-18T00:17:05.422Z,12.40
2018-05-18T00:19:39.163Z,12.50
2018-05-18T00:22:12.811Z,12.50
2018-05-18T00:24:46.533Z,12.60
2018-05-18T00:27:20.127Z,12.60
2018-05-18T00:29:53.681Z,12.50
2018-05-18T00:32:27.936Z,12.60
2018-05-18T00:35:01.551Z,12.60
2018-05-18T00:37:35.140Z,12.70
2018-05-18T00:40:08.719Z,12.60
2018-05-18T00:42:42.219Z,12.60
2018-05-18T00:45:15.841Z,12.60
2018-05-18T00:47:50.259Z,12.60
2018-05-18T00:50:23.864Z,12.60
2018-05-18T00:52:57.360Z,12.60
2018-05-18T00:55:40.831Z,12.30
2018-05-18T00:58:14.422Z,12.30
2018-05-18T01:00:48.069Z,12.50
2018-05-18T01:03:21.697Z,12.50
2018-05-18T01:05:55.300Z,12.60
2018-05-18T01:08:28.895Z,12.50
2018-05-18T01:11:02.492Z,12.50
2018-05-18T01:13:36.015Z,12.60
2018-05-18T01:16:09.593Z,12.60
2018-05-18T01:18:43.280Z,12.70
2018-05-18T01:21:17.013Z,12.60
2018-05-18T01:23:50.597Z,12.60
2018-05-18T01:26:24.208Z,12.60
2018-05-18T01:28:57.822Z,12.50
2018-05-18T01:31:31.522Z,12.50
2018-05-18T01:34:05.852Z,12.60
2018-05-18T01:36:39.518Z,12.60
2018-05-18T01:39:13.140Z,12.60
2018-05-18T01:41:46.705Z,12.60
2018-05-18T01:44:20.249Z,12.60
2018-05-18T01:46:53.824Z,12.40
2018-05-18T01:49:27.371Z,12.30
2018-05-18T01:52:00.958Z,12.40
2018-05-18T01:54:34.548Z,12.40
2018-05-18T01:57:08.602Z,12.50
2018-05-18T01:59:42.334Z,12.40
2018-05-18T02:02:15.922Z,12.50
2018-05-18T02:04:49.465Z,12.40
2018-05-18T02:07:23.136Z,12.40
2018-05-18T02:09:56.732Z,12.40
2018-05-18T02:12:30.372Z,12.40
2018-05-18T02:15:03.954Z,12.40
2018-05-18T02:17:37.760Z,12.50
2018-05-18T02:20:11.338Z,12.40
2018-05-18T02:22:44.858Z,12.40
2018-05-18T02:25:18.445Z,12.50
2018-05-18T02:27:52.213Z,12.40
2018-05-18T02:30:25.964Z,12.40
2018-05-18T02:32:59.485Z,12.40
2018-05-18T02:35:33.039Z,12.30
2018-05-18T02:38:07.369Z,12.40
2018-05-18T02:40:41.093Z,12.40
2018-05-18T02:43:14.645Z,12.40
2018-05-18T02:45:48.179Z,12.30
2018-05-18T02:48:21.746Z,12.30
2018-05-18T02:50:55.349Z,12.30
2018-05-18T02:53:29.014Z,12.20
2018-05-18T02:56:02.581Z,12.20
2018-05-18T02:58:36.152Z,12.10
2018-05-18T03:01:09.687Z,12.10
2018-05-18T03:03:43.293Z,12.10
2018-05-18T03:06:17.650Z,12.20
2018-05-18T03:08:51.249Z,12.20
2018-05-18T03:11:24.825Z,12.20
2018-05-18T03:13:58.407Z,12.20
2018-05-18T03:16:31.998Z,12.20
2018-05-18T03:19:05.578Z,12.20
2018-05-18T03:21:39.198Z,12.10
2018-05-18T03:24:13.013Z,12.10
2018-05-18T03:26:46.602Z,12.10
2018-05-18T03:29:20.214Z,12.20
2018-05-18T03:31:53.751Z,12.20
2018-05-18T03:34:27.409Z,12.20
2018-05-18T03:37:01.004Z,12.30
2018-05-18T03:39:34.603Z,12.20
2018-05-18T03:42:08.208Z,12.30
2018-05-18T03:44:41.736Z,12.30
2018-05-18T03:47:15.305Z,12.20
2018-05-18T03:49:49.041Z,12.30
2018-05-18T03:52:22.640Z,12.30
2018-05-18T03:54:56.159Z,12.20
2018-05-18T03:57:29.710Z,12.30
2018-05-18T04:00:03.312Z,12.30
2018-05-18T04:02:48.895Z,12.30
2018-05-18T04:05:34.418Z,12.20
2018-05-18T04:08:19.938Z,12.20
2018-05-18T04:10:53.552Z,12.30
2018-05-18T04:13:27.136Z,12.30
2018-05-18T04:16:00.776Z,12.30
2018-05-18T04:18:34.367Z,12.30
2018-05-18T04:21:08.696Z,12.30
2018-05-18T04:23:42.443Z,12.30
2018-05-18T04:26:16.114Z,12.30
2018-05-18T04:28:49.693Z,12.30
2018-05-18T04:31:23.270Z,12.40
2018-05-18T04:33:57.624Z,12.40
2018-05-18T04:36:31.140Z,12.40
2018-05-18T04:39:05.729Z,12.10
2018-05-18T04:41:39.330Z,12.20
2018-05-18T04:44:12.925Z,12.30
2018-05-18T04:46:46.472Z,12.30
2018-05-18T04:49:20.124Z,12.10
2018-05-18T04:51:53.693Z,12.10
2018-05-18T04:54:27.520Z,12.10
2018-05-18T04:57:01.289Z,12.10
2018-05-18T04:59:35.762Z,11.60
2018-05-18T05:02:09.494Z,11.60
2018-05-18T05:04:43.467Z,11.70
2018-05-18T05:07:17.138Z,11.80
2018-05-18T05:09:50.778Z,11.90
2018-05-18T05:12:25.303Z,11.90
2018-05-18T05:14:58.939Z,11.80
2018-05-18T05:17:32.517Z,11.90
2018-05-18T05:20:06.209Z,12.00
2018-05-18T05:22:39.815Z,12.10
2018-05-18T05:25:13.346Z,11.90
2018-05-18T05:27:46.947Z,11.90
2018-05-18T05:30:20.494Z,11.70
2018-05-18T05:32:54.042Z,11.80
2018-05-18T05:35:27.617Z,11.60
2018-05-18T05:38:01.912Z,11.90
2018-05-18T05:40:35.630Z,11.90
2018-05-18T05:43:09.942Z,12.20
2018-05-18T05:45:43.743Z,12.20
2018-05-18T05:48:17.326Z,12.20
2018-05-18T05:50:50.963Z,12.20
2018-05-18T05:53:25.477Z,12.40
2018-05-18T05:55:59.182Z,12.40
2018-05-18T05:58:32.894Z,12.30
2018-05-18T06:01:06.411Z,12.40
2018-05-18T06:03:41.049Z,12.70
2018-05-18T06:06:14.626Z,12.70
2018-05-18T06:08:48.913Z,13.00
2018-05-18T06:11:22.524Z,13.00
2018-05-18T06:13:56.081Z,13.00
2018-05-18T06:16:29.639Z,13.10
2018-05-18T06:19:03.253Z,13.30
2018-05-18T06:21:36.817Z,13.40
2018-05-18T06:24:11.144Z,13.10
2018-05-18T06:26:44.639Z,13.10
2018-05-18T06:29:18.170Z,13.10
2018-05-18T06:31:51.881Z,13.40
2018-05-18T06:34:25.382Z,13.30
2018-05-18T06:36:58.942Z,13.40
2018-05-18T06:39:32.537Z,13.60
2018-05-18T06:42:06.166Z,13.80
2018-05-18T06:44:39.775Z,13.90
2018-05-18T06:47:13.318Z,14.10
2018-05-18T06:49:46.982Z,14.20
2018-05-18T06:52:20.711Z,14.10
2018-05-18T06:54:54.340Z,14.10
2018-05-18T06:57:27.934Z,14.10
2018-05-18T07:00:01.473Z,14.00
2018-05-18T07:02:35.070Z,14.20
2018-05-18T07:05:08.648Z,14.20
2018-05-18T07:07:42.245Z,14.30
2018-05-18T07:10:15.839Z,14.30
2018-05-18T07:12:49.366Z,14.50
2018-05-18T07:15:22.951Z,14.70
2018-05-18T07:17:56.545Z,14.80
2018-05-18T07:20:30.132Z,14.90
2018-05-18T07:23:03.827Z,15.10
2018-05-18T07:25:37.335Z,15.30
2018-05-18T07:28:10.899Z,15.30
2018-05-18T07:30:45.265Z,15.20
2018-05-18T07:33:18.925Z,15.20
2018-05-18T07:35:52.499Z,15.30
2018-05-18T07:38:26.793Z,15.50
2018-05-18T07:41:00.364Z,15.50
2018-05-18T07:43:33.985Z,15.70
2018-05-18T07:46:07.516Z,15.80
2018-05-18T07:48:41.817Z,15.80
2018-05-18T07:51:15.518Z,15.80
2018-05-18T07:53:49.193Z,15.80
2018-05-18T07:56:22.727Z,15.80
2018-05-18T07:58:56.303Z,15.60
2018-05-18T08:01:29.827Z,15.60
2018-05-18T08:04:03.350Z,15.60
2018-05-18T08:06:36.827Z,15.80
2018-05-18T08:09:10.323Z,15.90
2018-05-18T08:11:43.875Z,16.00
2018-05-18T08:14:17.414Z,16.00
2018-05-18T08:16:51.021Z,16.10
2018-05-18T08:19:24.604Z,16.10
2018-05-18T08:21:58.940Z,16.20
2018-05-18T08:24:32.453Z,16.20
2018-05-18T08:27:17.901Z,16.30
2018-05-18T08:29:51.482Z,16.40
2018-05-18T08:32:25.118Z,16.40
2018-05-18T08:34:58.699Z,16.40
2018-05-18T08:37:32.289Z,16.60
2018-05-18T08:40:06.628Z,16.90
2018-05-18T08:42:41.158Z,16.90
2018-05-18T08:45:15.653Z,17.20
2018-05-18T08:47:49.428Z,17.20
2018-05-18T08:50:23.017Z,17.30
2018-05-18T08:52:56.717Z,17.30
2018-05-18T08:55:30.275Z,17.30
2018-05-18T08:58:03.901Z,17.30
2018-05-18T09:00:37.530Z,17.30
2018-05-18T09:03:10.978Z,17.30
2018-05-18T09:05:44.595Z,17.30
2018-05-18T09:08:18.191Z,17.40
2018-05-18T09:10:51.780Z,17.40
2018-05-18T09:13:25.326Z,17.30
2018-05-18T09:15:59.801Z,17.30
2018-05-18T09:18:34.114Z,17.20
2018-05-18T09:21:08.662Z,17.20
2018-05-18T09:23:42.998Z,17.10
2018-05-18T09:26:16.552Z,17.10
2018-05-18T09:28:50.343Z,17.20
2018-05-18T09:31:24.054Z,17.30
2018-05-18T09:33:58.404Z,17.50
2018-05-18T09:36:32.904Z,17.60
2018-05-18T09:39:07.416Z,17.80
2018-05-18T09:41:41.191Z,17.80
2018-05-18T09:44:14.748Z,17.80
2018-05-18T09:46:48.351Z,17.90
2018-05-18T09:49:21.931Z,18.00
2018-05-18T09:51:55.541Z,17.90
2018-05-18T09:54:29.424Z,18.00
2018-05-18T09:57:02.829Z,18.10
2018-05-18T09:59:36.347Z,18.00
2018-05-18T10:02:10.668Z,17.90
2018-05-18T10:04:44.397Z,17.90
2018-05-18T10:07:17.975Z,18.10
2018-05-18T10:09:51.596Z,18.40
2018-05-18T10:12:25.237Z,18.60
2018-05-18T10:14:58.707Z,18.70
2018-05-18T10:17:32.253Z,18.80
2018-05-18T10:20:05.862Z,19.00
2018-05-18T10:22:39.448Z,19.10
2018-05-18T10:25:12.954Z,19.20
2018-05-18T10:27:46.720Z,19.30
2018-05-18T10:30:29.184Z,19.40
2018-05-18T10:33:02.894Z,19.10
2018-05-18T10:35:36.484Z,18.70
2018-05-18T10:38:10.174Z,18.90
2018-05-18T10:40:43.778Z,18.90
2018-05-18T10:43:17.301Z,18.70
2018-05-18T10:45:50.881Z,18.80
2018-05-18T10:48:25.211Z,18.30
2018-05-18T10:50:58.836Z,18.20
2018-05-18T10:53:32.482Z,18.20
2018-05-18T10:56:06.034Z,18.20
2018-05-18T10:58:39.638Z,18.40
2018-05-18T11:01:13.087Z,18.50
2018-05-18T11:03:46.702Z,18.60
2018-05-18T11:06:20.257Z,18.80
2018-05-18T11:08:53.838Z,18.90
2018-05-18T11:11:29.014Z,18.90
2018-05-18T11:14:02.613Z,18.90
2018-05-18T11:16:36.114Z,19.00
2018-05-18T11:19:09.823Z,19.10
2018-05-18T11:21:44.064Z,19.10
2018-05-18T11:24:18.572Z,18.90
2018-05-18T11:26:52.304Z,18.90
2018-05-18T11:29:25.856Z,19.00
2018-05-18T11:31:59.453Z,19.20
2018-05-18T11:34:32.988Z,19.40
2018-05-18T11:37:07.304Z,19.60
2018-05-18T11:39:41.023Z,19.60
2018-05-18T11:42:14.681Z,19.70
2018-05-18T11:44:48.191Z,19.70
2018-05-18T11:47:21.718Z,19.90
2018-05-18T11:49:55.274Z,19.90
2018-05-18T11:52:28.819Z,20.00
2018-05-18T11:55:02.515Z,20.20
2018-05-18T11:57:36.123Z,20.30
2018-05-18T12:00:09.673Z,20.00
2018-05-18T12:02:43.303Z,20.10
2018-05-18T12:05:17.627Z,20.30
2018-05-18T12:07:52.121Z,20.20
2018-05-18T12:10:25.704Z,20.20
2018-05-18T12:12:59.313Z,20.10
2018-05-18T12:15:33.754Z,19.90
2018-05-18T12:18:08.852Z,19.90
2018-05-18T12:20:42.544Z,19.90
2018-05-18T12:23:16.915Z,20.00
2018-05-18T12:25:50.569Z,20.00
2018-05-18T12:28:24.859Z,20.30
2018-05-18T12:30:58.478Z,20.30
2018-05-18T12:33:32.037Z,20.50
2018-05-18T12:36:05.630Z,20.50
2018-05-18T12:38:39.128Z,20.20
2018-05-18T12:41:12.658Z,20.00
2018-05-18T12:43:46.958Z,19.70
2018-05-18T12:46:20.447Z,19.70
2018-05-18T12:48:54.804Z,19.80
2018-05-18T12:51:28.323Z,19.80
2018-05-18T12:54:02.016Z,20.10
2018-05-18T12:56:35.603Z,20.30
2018-05-18T12:59:09.200Z,20.40
2018-05-18T13:01:42.767Z,20.40
2018-05-18T13:04:16.370Z,20.40
2018-05-18T13:06:49.933Z,20.30
2018-05-18T13:09:23.493Z,20.30
2018-05-18T13:11:57.042Z,20.30
2018-05-18T13:14:30.659Z,20.30
2018-05-18T13:17:05.005Z,20.40
2018-05-18T13:19:38.679Z,20.40
2018-05-18T13:22:12.190Z,20.50
2018-05-18T13:24:45.769Z,20.60
2018-05-18T13:27:19.398Z,20.60
2018-05-18T13:29:53.811Z,20.10
2018-05-18T13:32:27.598Z,20.10
2018-05-18T13:35:01.149Z,20.00
2018-05-18T13:37:35.443Z,19.80
2018-05-18T13:40:09.147Z,19.80
2018-05-18T13:42:42.751Z,19.70
2018-05-18T13:45:16.338Z,19.50
2018-05-18T13:47:49.927Z,19.60
2018-05-18T13:50:23.539Z,19.70
2018-05-18T13:52:57.155Z,19.80
2018-05-18T13:55:30.780Z,19.80
2018-05-18T13:58:04.439Z,19.80
2018-05-18T14:00:37.984Z,19.80
2018-05-18T14:03:11.562Z,19.70
2018-05-18T14:05:45.116Z,19.80
2018-05-18T14:08:18.650Z,19.80
2018-05-18T14:10:52.255Z,19.80
2018-05-18T14:13:25.831Z,19.80
2018-05-18T14:15:59.368Z,19.80
2018-05-18T14:18:33.045Z,19.80
2018-05-18T14:21:06.599Z,19.70
2018-05-18T14:23:40.192Z,19.60
2018-05-18T14:26:13.769Z,19.50
2018-05-18T14:28:47.328Z,19.40
2018-05-18T14:31:20.864Z,19.30
2018-05-18T14:33:54.574Z,19.20
2018-05-18T14:36:28.202Z,18.90
2018-05-18T14:39:01.757Z,18.90
2018-05-18T14:41:35.357Z,18.60
2018-05-18T14:44:08.908Z,18.50
2018-05-18T14:46:43.243Z,18.10
2018-05-18T14:49:16.768Z,18.10
2018-05-18T14:51:51.167Z,18.10
2018-05-18T14:54:24.817Z,18.00
2018-05-18T14:56:58.388Z,18.10
2018-05-18T14:59:31.941Z,18.10
2018-05-18T15:02:06.327Z,17.70
2018-05-18T15:04:39.938Z,17.70
2018-05-18T15:07:13.494Z,17.70
2018-05-18T15:09:47.050Z,17.60
2018-05-18T15:12:20.614Z,17.60
2018-05-18T15:14:54.220Z,17.50
2018-05-18T15:17:27.819Z,17.50
2018-05-18T15:20:01.356Z,17.40
2018-05-18T15:22:34.894Z,17.30
2018-05-18T15:25:08.434Z,17.40
2018-05-18T15:27:42.023Z,17.50
2018-05-18T15:30:15.727Z,17.60
2018-05-18T15:32:49.212Z,17.60
2018-05-18T15:35:22.822Z,17.60
2018-05-18T15:37:56.401Z,17.70
2018-05-18T15:40:29.944Z,17.80
2018-05-18T15:43:03.529Z,17.80
2018-05-18T15:45:37.237Z,17.80
2018-05-18T15:48:11.498Z,17.90
2018-05-18T15:50:45.011Z,17.90
2018-05-18T15:53:18.536Z,18.10
2018-05-18T15:55:52.065Z,18.30
2018-05-18T15:58:25.720Z,18.40
2018-05-18T16:01:00.067Z,18.50
2018-05-18T16:03:34.572Z,18.50
2018-05-18T16:06:08.258Z,18.50
2018-05-18T16:08:41.782Z,18.60
2018-05-18T16:11:15.314Z,18.60
2018-05-18T16:13:48.870Z,18.60
2018-05-18T16:16:22.402Z,18.70
2018-05-18T16:18:55.946Z,18.90
2018-05-18T16:21:29.506Z,19.00
2018-05-18T16:24:03.129Z,19.00
2018-05-18T16:26:36.674Z,18.90
2018-05-18T16:29:11.003Z,18.70
2018-05-18T16:31:45.032Z,18.70
2018-05-18T16:34:18.520Z,18.60
2018-05-18T16:36:52.089Z,18.40
2018-05-18T16:39:25.717Z,18.30
2018-05-18T16:41:59.326Z,18.20
2018-05-18T16:44:32.899Z,18.10
2018-05-18T16:47:06.447Z,17.90
2018-05-18T16:49:39.994Z,17.80
2018-05-18T16:52:13.607Z,17.70
2018-05-18T16:54:47.107Z,17.60
2018-05-18T16:57:20.685Z,17.50
2018-05-18T16:59:54.231Z,17.40
2018-05-18T17:02:27.906Z,17.20
2018-05-18T17:05:01.480Z,17.20
2018-05-18T17:07:34.999Z,17.10
2018-05-18T17:10:09.320Z,16.90
2018-05-18T17:12:42.916Z,16.90
2018-05-18T17:15:16.524Z,16.90
2018-05-18T17:17:50.043Z,16.30
2018-05-18T17:20:23.623Z,16.20
2018-05-18T17:22:57.198Z,16.10
2018-05-18T17:25:30.700Z,16.10
2018-05-18T17:28:04.287Z,16.20
2018-05-18T17:30:37.942Z,16.30
2018-05-18T17:33:12.549Z,16.00
2018-05-18T17:35:46.281Z,16.00
2018-05-18T17:38:19.828Z,15.70
2018-05-18T17:40:53.423Z,15.20
2018-05-18T17:43:26.978Z,15.40
2018-05-18T17:46:00.703Z,15.50
2018-05-18T17:48:34.220Z,15.60
2018-05-18T17:51:07.984Z,15.70
2018-05-18T17:53:41.569Z,15.70
2018-05-18T17:56:15.150Z,15.70
2018-05-18T17:58:48.662Z,15.70
2018-05-18T18:01:22.381Z,15.20
2018-05-18T18:03:55.951Z,14.60
2018-05-18T18:06:29.570Z,14.50
2018-05-18T18:09:03.076Z,14.50
2018-05-18T18:11:37.432Z,14.80
2018-05-18T18:14:11.201Z,14.80
2018-05-18T18:16:44.673Z,14.80
2018-05-18T18:19:18.288Z,14.60
2018-05-18T18:21:52.165Z,14.70
2018-05-18T18:24:25.908Z,14.40
2018-05-18T18:26:59.503Z,14.10
2018-05-18T18:29:33.082Z,14.00
2018-05-18T18:32:06.638Z,14.20
2018-05-18T18:34:40.329Z,14.40
2018-05-18T18:37:14.155Z,14.50
2018-05-18T18:39:47.824Z,14.60
2018-05-18T18:42:21.384Z,14.70
2018-05-18T18:44:54.924Z,14.70
2018-05-18T18:47:28.483Z,14.50
2018-05-18T18:50:01.981Z,14.60
2018-05-18T18:52:35.534Z,14.50
2018-05-18T18:55:09.060Z,14.50
2018-05-18T18:57:42.616Z,14.50
2018-05-18T19:00:16.147Z,14.40
2018-05-18T19:02:49.894Z,14.40
2018-05-18T19:05:24.208Z,14.30
2018-05-18T19:07:58.588Z,14.40
2018-05-18T19:10:32.064Z,14.40
2018-05-18T19:13:05.724Z,14.40
2018-05-18T19:15:39.369Z,14.40
2018-05-18T19:18:12.934Z,14.30
2018-05-18T19:20:47.267Z,14.10
2018-05-18T19:23:20.929Z,14.10
2018-05-18T19:25:54.578Z,14.00
2018-05-18T19:28:28.113Z,13.90
2018-05-18T19:31:01.693Z,13.80
2018-05-18T19:33:36.079Z,13.70
2018-05-18T19:36:09.853Z,13.70
2018-05-18T19:38:43.428Z,13.60
2018-05-18T19:41:17.825Z,13.40
2018-05-18T19:43:52.346Z,13.40
2018-05-18T19:46:26.558Z,13.40
2018-05-18T19:49:00.212Z,13.30
2018-05-18T19:51:33.826Z,13.30
2018-05-18T19:54:07.414Z,13.20
2018-05-18T19:56:41.029Z,12.50
2018-05-18T19:59:14.567Z,12.00
2018-05-18T20:01:48.159Z,12.30
2018-05-18T20:04:21.921Z,12.50
2018-05-18T20:06:55.465Z,12.50
2018-05-18T20:09:29.071Z,12.40
2018-05-18T20:12:02.702Z,12.50
2018-05-18T20:14:36.970Z,12.50
2018-05-18T20:17:10.562Z,12.50
2018-05-18T20:19:44.218Z,12.50
2018-05-18T20:22:18.138Z,12.40
2018-05-18T20:24:51.704Z,12.40
2018-05-18T20:27:25.224Z,12.30
2018-05-18T20:29:58.764Z,12.20
2018-05-18T20:32:32.507Z,12.20
2018-05-18T20:35:06.199Z,12.10
2018-05-18T20:37:39.788Z,12.10
2018-05-18T20:40:13.392Z,12.00
2018-05-18T20:42:47.718Z,11.90
2018-05-18T20:45:21.459Z,11.90
2018-05-18T20:47:55.209Z,11.90
2018-05-18T20:50:28.744Z,11.90
2018-05-18T20:53:02.303Z,11.90
2018-05-18T20:55:36.849Z,11.80
2018-05-18T20:58:11.111Z,11.80
2018-05-18T21:00:45.572Z,11.60
2018-05-18T21:03:19.187Z,11.60
2018-05-18T21:05:52.777Z,11.60
2018-05-18T21:08:26.374Z,11.70
2018-05-18T21:11:00.702Z,11.80
2018-05-18T21:13:34.509Z,11.80
2018-05-18T21:16:08.115Z,11.80
2018-05-18T21:18:42.412Z,11.70
2018-05-18T21:21:16.009Z,11.70
2018-05-18T21:23:49.591Z,11.70
2018-05-18T21:26:25.226Z,11.60
2018-05-18T21:28:58.790Z,11.50
2018-05-18T21:31:32.295Z,11.50
2018-05-18T21:34:05.966Z,11.40
2018-05-18T21:36:39.509Z,11.50
2018-05-18T21:39:13.080Z,11.50
2018-05-18T21:41:46.683Z,11.40
2018-05-18T21:44:20.244Z,11.40
2018-05-18T21:46:53.809Z,11.30
2018-05-18T21:49:30.925Z,11.30
2018-05-18T21:52:04.608Z,11.30
2018-05-18T21:54:38.307Z,11.20
2018-05-18T21:57:11.841Z,11.20
2018-05-18T21:59:45.439Z,11.20
2018-05-18T22:02:19.170Z,11.20
2018-05-18T22:04:53.475Z,11.10
2018-05-18T22:07:27.072Z,11.10
2018-05-18T22:10:00.700Z,11.00
2018-05-18T22:12:34.270Z,10.90
2018-05-18T22:15:07.806Z,10.90
2018-05-18T22:17:41.508Z,10.80
2018-05-18T22:20:15.193Z,10.80
2018-05-18T22:22:48.799Z,10.80
2018-05-18T22:25:22.374Z,10.80
2018-05-18T22:27:55.958Z,10.80
2018-05-18T22:30:29.578Z,10.80
2018-05-18T22:33:03.148Z,10.80
2018-05-18T22:35:36.796Z,10.80
2018-05-18T22:38:10.501Z,10.70
2018-05-18T22:40:44.173Z,10.70
2018-05-18T22:43:17.667Z,10.70
2018-05-18T22:45:51.286Z,10.70
2018-05-18T22:48:24.825Z,10.60
2018-05-18T22:50:58.359Z,10.60
2018-05-18T22:53:32.006Z,10.40
2018-05-18T22:56:05.585Z,10.50
2018-05-18T22:58:39.194Z,10.60
2018-05-18T23:01:12.803Z,10.60
2018-05-18T23:03:46.329Z,10.80
2018-05-18T23:06:20.705Z,11.00
2018-05-18T23:08:54.394Z,11.00
2018-05-18T23:11:27.985Z,11.10
2018-05-18T23:14:01.654Z,11.00
2018-05-18T23:16:35.222Z,11.00
2018-05-18T23:19:08.799Z,11.00
2018-05-18T23:21:42.328Z,10.90
2018-05-18T23:24:15.913Z,10.90
2018-05-18T23:26:50.229Z,10.70
2018-05-18T23:29:23.988Z,10.70
2018-05-18T23:31:57.593Z,10.80
2018-05-18T23:34:31.135Z,10.70
2018-05-18T23:37:05.519Z,10.50
2018-05-18T23:39:39.177Z,10.00
2018-05-18T23:42:12.762Z,10.10
2018-05-18T23:44:46.333Z,10.10
2018-05-18T23:47:19.900Z,10.00
2018-05-18T23:49:53.459Z,10.10
2018-05-18T23:52:26.974Z,10.00
2018-05-18T23:55:00.540Z,10.10
2018-05-18T23:57:34.086Z,9.90
